sensor_id;sensor_type;location;lat;lon;timestamp;temperature;humidity
23311;DHT22;11828;51.508;18.118;2022-08-18T00:01:47;38.40;35.80
23311;DHT22;11828;51.508;18.118;2022-08-18T00:04:15;38.40;35.20
23311;DHT22;11828;51.508;18.118;2022-08-18T00:06:42;38.40;35.30
23311;DHT22;11828;51.508;18.118;2022-08-18T00:09:09;38.30;35.30
23311;DHT22;11828;51.508;18.118;2022-08-18T00:11:39;38.20;35.40
23311;DHT22;11828;51.508;18.118;2022-08-18T00:14:09;38.20;35.40
23311;DHT22;11828;51.508;18.118;2022-08-18T00:16:37;38.20;35.50
23311;DHT22;11828;51.508;18.118;2022-08-18T00:19:03;38.20;35.60
23311;DHT22;11828;51.508;18.118;2022-08-18T00:21:29;38.20;35.60
23311;DHT22;11828;51.508;18.118;2022-08-18T00:23:55;38.10;35.50
23311;DHT22;11828;51.508;18.118;2022-08-18T00:26:21;38.10;35.40
23311;DHT22;11828;51.508;18.118;2022-08-18T00:28:47;38.10;35.30
23311;DHT22;11828;51.508;18.118;2022-08-18T00:31:14;38.00;35.30
23311;DHT22;11828;51.508;18.118;2022-08-18T00:33:39;37.90;35.30
23311;DHT22;11828;51.508;18.118;2022-08-18T00:36:07;37.90;35.40
23311;DHT22;11828;51.508;18.118;2022-08-18T00:38:34;37.90;35.30
23311;DHT22;11828;51.508;18.118;2022-08-18T00:41:00;37.90;35.20
23311;DHT22;11828;51.508;18.118;2022-08-18T00:43:31;37.90;35.90
23311;DHT22;11828;51.508;18.118;2022-08-18T00:46:00;37.90;35.20
23311;DHT22;11828;51.508;18.118;2022-08-18T00:48:27;37.90;35.20
23311;DHT22;11828;51.508;18.118;2022-08-18T00:50:56;37.90;35.30
23311;DHT22;11828;51.508;18.118;2022-08-18T00:53:50;37.80;35.20
23311;DHT22;11828;51.508;18.118;2022-08-18T00:56:27;37.80;35.30
23311;DHT22;11828;51.508;18.118;2022-08-18T00:59:04;37.80;35.40
23311;DHT22;11828;51.508;18.118;2022-08-18T01:01:35;37.80;35.50
23311;DHT22;11828;51.508;18.118;2022-08-18T01:04:17;37.80;35.40
23311;DHT22;11828;51.508;18.118;2022-08-18T01:09:17;37.80;35.30
23311;DHT22;11828;51.508;18.118;2022-08-18T01:11:43;37.80;35.50
23311;DHT22;11828;51.508;18.118;2022-08-18T01:14:11;37.70;35.50
23311;DHT22;11828;51.508;18.118;2022-08-18T01:16:41;37.70;35.50
23311;DHT22;11828;51.508;18.118;2022-08-18T01:19:27;37.70;35.40
23311;DHT22;11828;51.508;18.118;2022-08-18T01:22:46;37.60;35.50
23311;DHT22;11828;51.508;18.118;2022-08-18T01:25:21;37.60;35.80
23311;DHT22;11828;51.508;18.118;2022-08-18T01:28:06;37.70;35.50
23311;DHT22;11828;51.508;18.118;2022-08-18T01:30:45;37.70;35.60
23311;DHT22;11828;51.508;18.118;2022-08-18T01:33:14;37.60;35.70
23311;DHT22;11828;51.508;18.118;2022-08-18T01:35:42;37.70;35.40
23311;DHT22;11828;51.508;18.118;2022-08-18T01:38:13;37.70;35.40
23311;DHT22;11828;51.508;18.118;2022-08-18T01:40:39;37.70;35.30
23311;DHT22;11828;51.508;18.118;2022-08-18T01:43:05;37.70;35.30
23311;DHT22;11828;51.508;18.118;2022-08-18T01:45:31;37.70;35.30
23311;DHT22;11828;51.508;18.118;2022-08-18T01:47:58;37.70;35.30
23311;DHT22;11828;51.508;18.118;2022-08-18T01:50:25;37.60;35.30
23311;DHT22;11828;51.508;18.118;2022-08-18T01:52:51;37.60;35.30
23311;DHT22;11828;51.508;18.118;2022-08-18T01:55:19;37.60;35.30
23311;DHT22;11828;51.508;18.118;2022-08-18T01:57:45;37.60;35.30
23311;DHT22;11828;51.508;18.118;2022-08-18T02:00:13;37.50;35.30
23311;DHT22;11828;51.508;18.118;2022-08-18T02:02:42;37.50;35.40
23311;DHT22;11828;51.508;18.118;2022-08-18T02:05:12;37.50;35.50
23311;DHT22;11828;51.508;18.118;2022-08-18T02:07:41;37.50;35.50
23311;DHT22;11828;51.508;18.118;2022-08-18T02:10:08;37.40;35.40
23311;DHT22;11828;51.508;18.118;2022-08-18T02:12:36;37.40;35.50
23311;DHT22;11828;51.508;18.118;2022-08-18T02:15:04;37.40;35.60
23311;DHT22;11828;51.508;18.118;2022-08-18T02:17:40;37.30;35.60
23311;DHT22;11828;51.508;18.118;2022-08-18T02:20:10;37.30;35.70
23311;DHT22;11828;51.508;18.118;2022-08-18T02:22:39;37.30;35.60
23311;DHT22;11828;51.508;18.118;2022-08-18T02:25:06;37.30;35.60
23311;DHT22;11828;51.508;18.118;2022-08-18T02:27:32;37.20;35.60
23311;DHT22;11828;51.508;18.118;2022-08-18T02:30:01;37.20;35.70
23311;DHT22;11828;51.508;18.118;2022-08-18T02:32:30;37.20;35.70
23311;DHT22;11828;51.508;18.118;2022-08-18T02:34:57;37.20;35.80
23311;DHT22;11828;51.508;18.118;2022-08-18T02:37:23;37.10;35.70
23311;DHT22;11828;51.508;18.118;2022-08-18T02:39:49;37.20;35.80
23311;DHT22;11828;51.508;18.118;2022-08-18T02:42:15;37.20;35.80
23311;DHT22;11828;51.508;18.118;2022-08-18T02:44:42;37.10;35.60
23311;DHT22;11828;51.508;18.118;2022-08-18T02:47:08;37.20;35.70
23311;DHT22;11828;51.508;18.118;2022-08-18T02:49:34;37.10;35.60
23311;DHT22;11828;51.508;18.118;2022-08-18T02:52:04;37.10;35.70
23311;DHT22;11828;51.508;18.118;2022-08-18T02:54:30;37.10;35.70
23311;DHT22;11828;51.508;18.118;2022-08-18T02:56:57;37.10;35.70
23311;DHT22;11828;51.508;18.118;2022-08-18T02:59:25;37.10;35.70
23311;DHT22;11828;51.508;18.118;2022-08-18T03:01:54;37.10;35.70
23311;DHT22;11828;51.508;18.118;2022-08-18T03:04:23;37.10;35.70
23311;DHT22;11828;51.508;18.118;2022-08-18T03:06:56;37.10;35.70
23311;DHT22;11828;51.508;18.118;2022-08-18T03:09:23;37.10;35.90
23311;DHT22;11828;51.508;18.118;2022-08-18T03:11:49;37.10;35.90
23311;DHT22;11828;51.508;18.118;2022-08-18T03:14:15;37.00;35.90
23311;DHT22;11828;51.508;18.118;2022-08-18T03:16:45;37.00;36.00
23311;DHT22;11828;51.508;18.118;2022-08-18T03:19:13;37.00;36.10
23311;DHT22;11828;51.508;18.118;2022-08-18T03:21:43;37.00;36.10
23311;DHT22;11828;51.508;18.118;2022-08-18T03:24:10;37.00;36.10
23311;DHT22;11828;51.508;18.118;2022-08-18T03:26:40;37.00;36.00
23311;DHT22;11828;51.508;18.118;2022-08-18T03:29:08;37.00;36.00
23311;DHT22;11828;51.508;18.118;2022-08-18T03:31:36;37.00;35.90
23311;DHT22;11828;51.508;18.118;2022-08-18T03:34:04;37.00;35.80
23311;DHT22;11828;51.508;18.118;2022-08-18T03:36:32;37.00;35.80
23311;DHT22;11828;51.508;18.118;2022-08-18T03:39:06;37.00;35.70
23311;DHT22;11828;51.508;18.118;2022-08-18T03:41:33;37.00;35.80
23311;DHT22;11828;51.508;18.118;2022-08-18T03:44:03;37.00;35.70
23311;DHT22;11828;51.508;18.118;2022-08-18T03:46:29;37.00;35.70
23311;DHT22;11828;51.508;18.118;2022-08-18T03:48:57;37.00;35.80
23311;DHT22;11828;51.508;18.118;2022-08-18T03:51:29;36.90;35.80
23311;DHT22;11828;51.508;18.118;2022-08-18T03:54:01;36.90;35.90
23311;DHT22;11828;51.508;18.118;2022-08-18T03:56:34;36.90;36.00
23311;DHT22;11828;51.508;18.118;2022-08-18T03:59:05;37.00;36.10
23311;DHT22;11828;51.508;18.118;2022-08-18T04:01:36;36.90;36.00
23311;DHT22;11828;51.508;18.118;2022-08-18T04:04:10;37.00;36.10
23311;DHT22;11828;51.508;18.118;2022-08-18T04:06:45;36.90;36.10
23311;DHT22;11828;51.508;18.118;2022-08-18T04:09:17;36.90;36.20
23311;DHT22;11828;51.508;18.118;2022-08-18T04:11:44;36.90;36.30
23311;DHT22;11828;51.508;18.118;2022-08-18T04:14:12;36.90;36.30
23311;DHT22;11828;51.508;18.118;2022-08-18T04:16:40;37.00;36.90
23311;DHT22;11828;51.508;18.118;2022-08-18T04:19:07;37.00;36.10
23311;DHT22;11828;51.508;18.118;2022-08-18T04:21:37;37.00;36.20
23311;DHT22;11828;51.508;18.118;2022-08-18T04:24:04;36.90;36.20
23311;DHT22;11828;51.508;18.118;2022-08-18T04:26:38;36.90;36.30
23311;DHT22;11828;51.508;18.118;2022-08-18T04:29:08;36.90;36.40
23311;DHT22;11828;51.508;18.118;2022-08-18T04:31:36;37.00;36.40
23311;DHT22;11828;51.508;18.118;2022-08-18T04:34:02;37.00;36.30
23311;DHT22;11828;51.508;18.118;2022-08-18T04:36:30;37.00;36.40
23311;DHT22;11828;51.508;18.118;2022-08-18T04:38:59;37.00;36.60
23311;DHT22;11828;51.508;18.118;2022-08-18T04:41:26;36.80;36.60
23311;DHT22;11828;51.508;18.118;2022-08-18T04:44:01;36.80;36.80
23311;DHT22;11828;51.508;18.118;2022-08-18T04:46:30;36.80;36.90
23311;DHT22;11828;51.508;18.118;2022-08-18T04:49:00;36.80;37.00
23311;DHT22;11828;51.508;18.118;2022-08-18T04:51:29;36.60;37.10
23311;DHT22;11828;51.508;18.118;2022-08-18T04:53:56;36.50;37.10
23311;DHT22;11828;51.508;18.118;2022-08-18T04:56:25;36.50;37.30
23311;DHT22;11828;51.508;18.118;2022-08-18T04:59:06;36.40;37.50
23311;DHT22;11828;51.508;18.118;2022-08-18T05:01:44;36.20;37.70
23311;DHT22;11828;51.508;18.118;2022-08-18T05:04:13;36.20;37.90
23311;DHT22;11828;51.508;18.118;2022-08-18T05:06:42;36.40;37.90
23311;DHT22;11828;51.508;18.118;2022-08-18T05:09:10;36.50;37.70
23311;DHT22;11828;51.508;18.118;2022-08-18T05:11:37;36.70;37.60
23311;DHT22;11828;51.508;18.118;2022-08-18T05:14:06;36.80;37.30
23311;DHT22;11828;51.508;18.118;2022-08-18T05:16:34;37.00;37.20
23311;DHT22;11828;51.508;18.118;2022-08-18T05:19:08;37.20;37.10
23311;DHT22;11828;51.508;18.118;2022-08-18T05:21:37;37.30;36.80
23311;DHT22;11828;51.508;18.118;2022-08-18T05:24:07;37.50;36.70
23311;DHT22;11828;51.508;18.118;2022-08-18T05:26:35;37.60;36.40
23311;DHT22;11828;51.508;18.118;2022-08-18T05:29:02;37.80;36.30
23311;DHT22;11828;51.508;18.118;2022-08-18T05:31:28;37.90;36.10
23311;DHT22;11828;51.508;18.118;2022-08-18T05:33:55;38.00;36.00
23311;DHT22;11828;51.508;18.118;2022-08-18T05:44:48;38.20;35.90
23311;DHT22;11828;51.508;18.118;2022-08-18T05:47:27;38.20;35.80
23311;DHT22;11828;51.508;18.118;2022-08-18T05:49:57;38.30;36.00
23311;DHT22;11828;51.508;18.118;2022-08-18T05:52:50;38.30;35.90
23311;DHT22;11828;51.508;18.118;2022-08-18T05:55:40;38.40;36.10
23311;DHT22;11828;51.508;18.118;2022-08-18T05:58:41;38.30;36.00
23311;DHT22;11828;51.508;18.118;2022-08-18T06:01:14;38.10;36.10
23311;DHT22;11828;51.508;18.118;2022-08-18T06:04:06;38.10;36.40
23311;DHT22;11828;51.508;18.118;2022-08-18T06:06:42;38.10;36.60
23311;DHT22;11828;51.508;18.118;2022-08-18T06:09:18;38.20;36.50
23311;DHT22;11828;51.508;18.118;2022-08-18T06:11:47;38.20;36.60
23311;DHT22;11828;51.508;18.118;2022-08-18T06:14:14;38.40;36.50
23311;DHT22;11828;51.508;18.118;2022-08-18T06:22:42;39.00;36.20
23311;DHT22;11828;51.508;18.118;2022-08-18T06:28:20;39.50;35.80
23311;DHT22;11828;51.508;18.118;2022-08-18T06:31:08;39.80;35.60
23311;DHT22;11828;51.508;18.118;2022-08-18T06:41:49;40.60;34.80
23311;DHT22;11828;51.508;18.118;2022-08-18T06:44:42;40.90;34.80
23311;DHT22;11828;51.508;18.118;2022-08-18T06:47:12;41.10;34.20
23311;DHT22;11828;51.508;18.118;2022-08-18T06:50:07;41.40;34.40
23311;DHT22;11828;51.508;18.118;2022-08-18T06:52:51;41.70;34.00
23311;DHT22;11828;51.508;18.118;2022-08-18T06:55:35;41.90;34.30
23311;DHT22;11828;51.508;18.118;2022-08-18T06:58:25;42.50;33.60
23311;DHT22;11828;51.508;18.118;2022-08-18T07:01:01;43.00;33.30
23311;DHT22;11828;51.508;18.118;2022-08-18T07:08:47;45.00;30.90
23311;DHT22;11828;51.508;18.118;2022-08-18T07:16:21;47.20;28.20
23311;DHT22;11828;51.508;18.118;2022-08-18T07:18:48;47.80;28.00
23311;DHT22;11828;51.508;18.118;2022-08-18T07:21:28;48.30;27.30
23311;DHT22;11828;51.508;18.118;2022-08-18T07:24:22;48.60;26.40
23311;DHT22;11828;51.508;18.118;2022-08-18T07:27:03;49.00;26.40
23311;DHT22;11828;51.508;18.118;2022-08-18T07:29:37;49.10;26.10
23311;DHT22;11828;51.508;18.118;2022-08-18T07:32:14;49.00;26.20
23311;DHT22;11828;51.508;18.118;2022-08-18T07:34:46;48.90;26.30
23311;DHT22;11828;51.508;18.118;2022-08-18T07:45:28;49.30;25.50
23311;DHT22;11828;51.508;18.118;2022-08-18T07:54:05;50.10;24.90
23311;DHT22;11828;51.508;18.118;2022-08-18T08:00:06;51.10;22.80
23311;DHT22;11828;51.508;18.118;2022-08-18T08:05:28;51.90;23.00
23311;DHT22;11828;51.508;18.118;2022-08-18T08:08:22;52.00;22.90
23311;DHT22;11828;51.508;18.118;2022-08-18T08:13:59;52.00;22.50
23311;DHT22;11828;51.508;18.118;2022-08-18T08:19:39;52.00;22.50
23311;DHT22;11828;51.508;18.118;2022-08-18T08:30:37;51.80;22.10
23311;DHT22;11828;51.508;18.118;2022-08-18T08:36:23;52.30;21.90
23311;DHT22;11828;51.508;18.118;2022-08-18T08:39:14;52.50;21.50
23311;DHT22;11828;51.508;18.118;2022-08-18T08:41:58;52.60;21.20
23311;DHT22;11828;51.508;18.118;2022-08-18T08:44:33;52.30;24.20
23311;DHT22;11828;51.508;18.118;2022-08-18T08:47:17;52.00;20.90
23311;DHT22;11828;51.508;18.118;2022-08-18T08:49:55;51.90;21.80
23311;DHT22;11828;51.508;18.118;2022-08-18T08:52:46;51.00;22.30
23311;DHT22;11828;51.508;18.118;2022-08-18T08:55:24;50.10;25.50
23311;DHT22;11828;51.508;18.118;2022-08-18T08:58:02;49.80;31.20
23311;DHT22;11828;51.508;18.118;2022-08-18T09:11:41;49.00;22.30
23311;DHT22;11828;51.508;18.118;2022-08-18T09:25:56;47.90;31.70
23311;DHT22;11828;51.508;18.118;2022-08-18T09:39:27;48.90;22.60
23311;DHT22;11828;51.508;18.118;2022-08-18T09:42:16;48.70;30.80
23311;DHT22;11828;51.508;18.118;2022-08-18T09:49:52;48.90;22.60
23311;DHT22;11828;51.508;18.118;2022-08-18T10:10:36;47.70;29.30
23311;DHT22;11828;51.508;18.118;2022-08-18T10:24:22;46.50;31.60
23311;DHT22;11828;51.508;18.118;2022-08-18T10:34:48;44.00;27.40
23311;DHT22;11828;51.508;18.118;2022-08-18T10:42:40;44.50;44.20
23311;DHT22;11828;51.508;18.118;2022-08-18T10:45:21;44.10;37.90
23311;DHT22;11828;51.508;18.118;2022-08-18T10:48:21;44.30;26.50
23311;DHT22;11828;51.508;18.118;2022-08-18T10:51:02;44.50;46.60
23311;DHT22;11828;51.508;18.118;2022-08-18T10:56:51;45.00;41.30
23311;DHT22;11828;51.508;18.118;2022-08-18T11:05:10;46.00;24.50
23311;DHT22;11828;51.508;18.118;2022-08-18T11:07:37;45.50;34.80
23311;DHT22;11828;51.508;18.118;2022-08-18T11:19:12;45.50;39.70
23311;DHT22;11828;51.508;18.118;2022-08-18T11:21:43;45.50;38.60
23311;DHT22;11828;51.508;18.118;2022-08-18T11:24:17;45.10;36.90
23311;DHT22;11828;51.508;18.118;2022-08-18T11:26:54;45.30;37.20
23311;DHT22;11828;51.508;18.118;2022-08-18T11:32:08;45.00;36.90
23311;DHT22;11828;51.508;18.118;2022-08-18T11:37:34;44.80;36.80
23311;DHT22;11828;51.508;18.118;2022-08-18T11:40:05;45.20;35.80
23311;DHT22;11828;51.508;18.118;2022-08-18T11:42:39;44.80;25.30
23311;DHT22;11828;51.508;18.118;2022-08-18T11:48:08;45.40;35.40
23311;DHT22;11828;51.508;18.118;2022-08-18T11:56:31;45.30;37.80
23311;DHT22;11828;51.508;18.118;2022-08-18T11:59:04;45.60;38.10
23311;DHT22;11828;51.508;18.118;2022-08-18T12:04:35;45.70;33.30
23311;DHT22;11828;51.508;18.118;2022-08-18T12:07:13;45.40;35.80
23311;DHT22;11828;51.508;18.118;2022-08-18T12:12:30;45.90;31.00
23311;DHT22;11828;51.508;18.118;2022-08-18T12:17:39;46.50;25.80
23311;DHT22;11828;51.508;18.118;2022-08-18T12:20:07;46.50;31.60
23311;DHT22;11828;51.508;18.118;2022-08-18T12:22:36;46.40;22.50
23311;DHT22;11828;51.508;18.118;2022-08-18T12:25:06;46.40;32.80
23311;DHT22;11828;51.508;18.118;2022-08-18T12:27:34;46.20;22.70
23311;DHT22;11828;51.508;18.118;2022-08-18T12:30:01;45.00;23.90
23311;DHT22;11828;51.508;18.118;2022-08-18T12:32:30;45.00;35.50
23311;DHT22;11828;51.508;18.118;2022-08-18T12:34:58;44.80;28.30
23311;DHT22;11828;51.508;18.118;2022-08-18T12:37:26;45.10;35.20
23311;DHT22;11828;51.508;18.118;2022-08-18T12:39:55;45.30;36.00
23311;DHT22;11828;51.508;18.118;2022-08-18T12:42:24;44.90;39.10
23311;DHT22;11828;51.508;18.118;2022-08-18T12:44:50;45.20;39.30
23311;DHT22;11828;51.508;18.118;2022-08-18T12:47:23;44.70;40.20
23311;DHT22;11828;51.508;18.118;2022-08-18T12:49:51;44.10;24.50
23311;DHT22;11828;51.508;18.118;2022-08-18T12:52:18;43.70;30.60
23311;DHT22;11828;51.508;18.118;2022-08-18T12:54:44;43.90;39.80
23311;DHT22;11828;51.508;18.118;2022-08-18T12:57:24;43.80;25.30
23311;DHT22;11828;51.508;18.118;2022-08-18T13:07:13;44.50;38.20
23311;DHT22;11828;51.508;18.118;2022-08-18T13:09:41;44.10;26.00
23311;DHT22;11828;51.508;18.118;2022-08-18T13:24:22;44.40;45.80
23311;DHT22;11828;51.508;18.118;2022-08-18T13:26:48;45.00;44.30
23311;DHT22;11828;51.508;18.118;2022-08-18T13:29:15;45.30;43.00
23311;DHT22;11828;51.508;18.118;2022-08-18T13:31:43;45.50;23.90
23311;DHT22;11828;51.508;18.118;2022-08-18T13:34:11;45.90;25.50
23311;DHT22;11828;51.508;18.118;2022-08-18T13:39:11;45.40;30.20
23311;DHT22;11828;51.508;18.118;2022-08-18T13:41:39;45.60;42.30
23311;DHT22;11828;51.508;18.118;2022-08-18T13:44:07;45.30;33.60
23311;DHT22;11828;51.508;18.118;2022-08-18T13:51:47;46.10;23.00
23311;DHT22;11828;51.508;18.118;2022-08-18T13:54:22;46.00;22.90
23311;DHT22;11828;51.508;18.118;2022-08-18T13:59:16;46.00;46.50
23311;DHT22;11828;51.508;18.118;2022-08-18T14:01:43;45.60;38.30
23311;DHT22;11828;51.508;18.118;2022-08-18T14:04:11;46.40;22.40
23311;DHT22;11828;51.508;18.118;2022-08-18T14:09:05;46.40;43.50
23311;DHT22;11828;51.508;18.118;2022-08-18T14:11:36;47.20;22.20
23311;DHT22;11828;51.508;18.118;2022-08-18T14:14:03;47.60;30.80
23311;DHT22;11828;51.508;18.118;2022-08-18T14:16:31;47.40;24.10
23311;DHT22;11828;51.508;18.118;2022-08-18T14:21:49;48.10;22.10
23311;DHT22;11828;51.508;18.118;2022-08-18T14:24:36;48.40;21.90
23311;DHT22;11828;51.508;18.118;2022-08-18T14:27:30;48.70;34.40
23311;DHT22;11828;51.508;18.118;2022-08-18T14:30:00;47.90;34.30
23311;DHT22;11828;51.508;18.118;2022-08-18T14:34:59;47.50;21.80
23311;DHT22;11828;51.508;18.118;2022-08-18T14:37:27;47.50;24.40
23311;DHT22;11828;51.508;18.118;2022-08-18T14:42:21;47.00;21.80
23311;DHT22;11828;51.508;18.118;2022-08-18T14:44:47;46.60;39.80
23311;DHT22;11828;51.508;18.118;2022-08-18T14:47:14;45.60;22.50
23311;DHT22;11828;51.508;18.118;2022-08-18T14:49:40;45.10;36.80
23311;DHT22;11828;51.508;18.118;2022-08-18T14:52:07;45.30;44.80
23311;DHT22;11828;51.508;18.118;2022-08-18T14:57:04;46.00;23.00
23311;DHT22;11828;51.508;18.118;2022-08-18T15:01:58;46.60;24.80
23311;DHT22;11828;51.508;18.118;2022-08-18T15:04:25;45.70;31.20
23311;DHT22;11828;51.508;18.118;2022-08-18T15:06:52;46.10;41.70
23311;DHT22;11828;51.508;18.118;2022-08-18T15:09:19;45.60;23.00
23311;DHT22;11828;51.508;18.118;2022-08-18T15:11:45;45.40;37.50
23311;DHT22;11828;51.508;18.118;2022-08-18T15:14:11;44.80;41.70
23311;DHT22;11828;51.508;18.118;2022-08-18T15:16:37;44.40;44.80
23311;DHT22;11828;51.508;18.118;2022-08-18T15:31:57;45.10;23.10
23311;DHT22;11828;51.508;18.118;2022-08-18T15:41:45;46.10;27.00
23311;DHT22;11828;51.508;18.118;2022-08-18T15:46:43;46.10;22.50
23311;DHT22;11828;51.508;18.118;2022-08-18T15:49:10;46.40;33.00
23311;DHT22;11828;51.508;18.118;2022-08-18T15:51:38;46.60;23.20
23311;DHT22;11828;51.508;18.118;2022-08-18T15:54:07;47.30;33.20
23311;DHT22;11828;51.508;18.118;2022-08-18T15:59:02;46.80;32.90
23311;DHT22;11828;51.508;18.118;2022-08-18T16:01:33;46.80;38.80
23311;DHT22;11828;51.508;18.118;2022-08-18T16:04:04;45.70;35.50
23311;DHT22;11828;51.508;18.118;2022-08-18T16:06:32;45.50;36.80
23311;DHT22;11828;51.508;18.118;2022-08-18T16:11:27;44.10;36.10
23311;DHT22;11828;51.508;18.118;2022-08-18T16:16:21;43.50;24.30
23311;DHT22;11828;51.508;18.118;2022-08-18T16:18:49;43.30;24.70
23311;DHT22;11828;51.508;18.118;2022-08-18T16:21:18;42.90;25.10
23311;DHT22;11828;51.508;18.118;2022-08-18T16:26:15;42.10;31.60
23311;DHT22;11828;51.508;18.118;2022-08-18T16:28:45;42.00;25.60
23311;DHT22;11828;51.508;18.118;2022-08-18T16:31:16;41.70;26.00
23311;DHT22;11828;51.508;18.118;2022-08-18T16:46:20;40.70;46.80
23311;DHT22;11828;51.508;18.118;2022-08-18T16:53:48;40.70;48.70
23311;DHT22;11828;51.508;18.118;2022-08-18T16:58:49;40.70;50.40
23311;DHT22;11828;51.508;18.118;2022-08-18T17:24:02;40.40;31.20
23311;DHT22;11828;51.508;18.118;2022-08-18T17:29:26;40.40;33.10
23311;DHT22;11828;51.508;18.118;2022-08-18T17:34:36;40.70;32.50
23311;DHT22;11828;51.508;18.118;2022-08-18T17:42:05;40.20;52.70
23311;DHT22;11828;51.508;18.118;2022-08-18T17:47:28;40.10;35.00
23311;DHT22;11828;51.508;18.118;2022-08-18T17:52:55;40.10;34.30
23311;DHT22;11828;51.508;18.118;2022-08-18T17:58:07;40.00;49.00
23311;DHT22;11828;51.508;18.118;2022-08-18T18:00:35;39.50;52.00
23311;DHT22;11828;51.508;18.118;2022-08-18T18:05:35;39.80;32.70
23311;DHT22;11828;51.508;18.118;2022-08-18T18:08:04;39.30;54.00
23311;DHT22;11828;51.508;18.118;2022-08-18T18:10:48;39.20;34.40
23311;DHT22;11828;51.508;18.118;2022-08-18T18:15:46;39.00;53.10
23311;DHT22;11828;51.508;18.118;2022-08-18T18:21:20;39.20;36.50
23311;DHT22;11828;51.508;18.118;2022-08-18T18:36:59;38.90;34.50
23311;DHT22;11828;51.508;18.118;2022-08-18T18:42:14;38.70;34.40
23311;DHT22;11828;51.508;18.118;2022-08-18T18:50:37;38.40;39.10
23311;DHT22;11828;51.508;18.118;2022-08-18T19:15:56;37.90;40.00
23311;DHT22;11828;51.508;18.118;2022-08-18T19:18:33;38.00;40.50
23311;DHT22;11828;51.508;18.118;2022-08-18T19:26:18;37.90;34.40
23311;DHT22;11828;51.508;18.118;2022-08-18T19:31:37;37.80;38.40
23311;DHT22;11828;51.508;18.118;2022-08-18T20:31:57;37.10;40.70
23311;DHT22;11828;51.508;18.118;2022-08-18T20:36:56;37.20;40.10
23311;DHT22;11828;51.508;18.118;2022-08-18T20:58:15;36.80;39.20
23311;DHT22;11828;51.508;18.118;2022-08-18T21:00:46;36.70;41.00
23311;DHT22;11828;51.508;18.118;2022-08-18T21:10:56;36.40;44.10
23311;DHT22;11828;51.508;18.118;2022-08-18T21:21:11;36.30;46.20
23311;DHT22;11828;51.508;18.118;2022-08-18T21:28:54;36.40;45.40
23311;DHT22;11828;51.508;18.118;2022-08-18T22:03:22;35.90;42.70
23311;DHT22;11828;51.508;18.118;2022-08-18T22:14:23;36.10;53.90
23311;DHT22;11828;51.508;18.118;2022-08-18T22:26:18;35.50;45.30
23311;DHT22;11828;51.508;18.118;2022-08-18T22:36:39;35.90;44.40
23311;DHT22;11828;51.508;18.118;2022-08-18T22:46:33;36.00;44.60
23311;DHT22;11828;51.508;18.118;2022-08-18T22:51:28;35.90;43.60
23311;DHT22;11828;51.508;18.118;2022-08-18T23:18:26;35.20;66.00
23311;DHT22;11828;51.508;18.118;2022-08-18T23:25:53;34.50;48.40
23311;DHT22;11828;51.508;18.118;2022-08-18T23:33:17;34.40;44.40
23311;DHT22;11828;51.508;18.118;2022-08-18T23:38:11;34.30;45.30
23311;DHT22;11828;51.508;18.118;2022-08-18T23:40:41;33.80;45.40
23311;DHT22;11828;51.508;18.118;2022-08-18T23:48:07;34.20;46.00
23311;DHT22;11828;51.508;18.118;2022-08-18T23:53:09;33.70;47.50
23311;DHT22;11828;51.508;18.118;2022-08-18T23:58:03;33.70;47.40
